Kezdőlap
METAR-TAF:

METAR-TAF

Repülőterek :

Lawrence Municipal Airport

Lawrence, Kansas, Amerikai Egyesült Államok

földrajzi szélesség: 39-00-30N, földrajzi hosszúság: 095-12-42W, magasság: 253 m

Jelenlegi meteorológiai megfigyelések

A jelentés 13 perccel ezelõtt készült, 12:52 UTC
Északkeleti szél 8 kt
Hőmérséklet 3°C
Páratartalom 75%
Légköri nyomás 1024 hPa
Látótávolság: 16.1 km
Derült ég

METAR: KLWC 041252Z AUTO 05008KT 10SM CLR 03/M01 A3025 RMK AO1 SLP248 T00331006

Idő: 07:05 (13:05 UTC)


TAF: hiányzik

Meteorológiai megfigyelések és előrejelzések több, mint 4000 repülőtéren (METAR és TAF jelentéseket).

A térképen piros és sárga pontok jelzik az elérhető meteorológiai állomásokat.

Mozgassa az egeret a pont fölött, hogy megjelenjen az állomás neve.

Azután kattintson az időjárási megfigyelések és előrejelzések megtekintéséhez.

A térkép megváltoztatása: kattintson a fekete keresztel jelölt zöld gombra ráközelítéshez, a vonallal jelölt zöld gombra távolításhoz, vagy a zöld nyilakra a szomszédos térképek eléréséhez.


METAR-TAF: